Latest Coastal Weather Observations for Moruya Airport

IDN60701

Issued at 1:11 am EDT Thursday 8 December 2016 (issued every 10 minutes, with the page automatically refreshed every 10 minutes)

About coastal observations | Map of coastal stations | Coastal observations for NSW | Marine services | Other Formats
Station Details ID: 069148 Name: MORUYA AIRPORT AWS Lat: -35.90 Lon: 150.14 Height: 4.0 m
Data from the previous 72 hours. | See also: Recent months at Moruya Airport
Date/Time
EDT
Temp
°C
Wind Pressure Rain since
9am
mm
Weather Cloud Vis
km
Sea
Height
m
Swell
Dir  Spd
kts
Gust
kts
hPa Trend Height
m
Period
s
Dir
08/01:00am 17.9 NNW 5 7 1011.6 - 0.2 - Partly cloudy 9 - - - -
08/12:30am 17.9 NNW 3 4 1011.9 - 0.2 - Partly cloudy 9 - - - -
08/12:00am 18.0 NNW 4 6 1012.1 - 0.2 - Partly cloudy 8 - - - -
 
Date/Time
EDT
Temp
°C
Wind Pressure Rain since
9am
mm
Weather Cloud Vis
km
Sea
Height
m
Swell
Dir  Spd
kts
Gust
kts
hPa Trend Height
m
Period
s
Dir
07/11:55pm 17.9 NNW 4 6 1012.2 - 0.2 - Partly cloudy 9 - - - -
07/11:41pm 17.9 NNW 1 3 1012.5 - 0.2 - Partly cloudy 5 - - - -
07/11:30pm 17.8 NW 2 4 1012.5 - 0.2 - Partly cloudy 9 - - - -
07/11:11pm 17.8 NW 3 4 1012.6 - 0.2 - Partly cloudy 5 - - - -
07/11:00pm 17.7 NW 1 4 1012.7 - 0.2 - Partly cloudy 10 - - - -
07/10:30pm 17.6 NW 2 3 1012.9 - 0.2 - Partly cloudy 10 - - - -
07/10:00pm 17.7 WNW 2 4 1013.3 - 0.2 - Partly cloudy 8 - - - -
07/09:30pm 17.8 CALM 0 0 1013.7 - 0.2 - Cloudy 9 - - - -
07/09:00pm 18.0 CALM 0 0 1013.7 - 0.2 - Cloudy 10 - - - -
07/08:30pm 18.2 W 2 4 1013.8 - 0.2 - Cloudy 9 - - - -
07/08:27pm 18.2 WNW 3 4 1013.9 - 0.2 - Cloudy 9 - - - -
07/08:08pm 18.3 NNW 5 8 1014.0 - 0.2 - Cloudy 5 - - - -
07/08:00pm 18.2 NW 4 6 1013.9 - 0.2 - Cloudy 10 - - - -
07/07:30pm 18.2 NNW 5 6 1013.8 - 0.2 - Partly cloudy 8 - - - -
07/07:00pm 18.6 NNE 5 7 1013.8 - 0.2 - Partly cloudy 10 - - - -
07/06:30pm 19.3 NNE 9 12 1013.8 - 0.2 - Cloudy 10 - - - -
07/06:00pm 20.2 NE 7 10 1013.5 - 0.2 - Cloudy 9 - - - -
07/05:30pm 20.0 ENE 7 9 1013.4 - 0.2 - Cloudy 10 - - - -
07/05:00pm 20.0 ENE 7 11 1013.5 - 0.2 - Cloudy 9 - - - -
07/04:30pm 20.2 ENE 8 11 1013.7 - 0.2 - Partly cloudy 10 - - - -
07/04:00pm 20.3 ENE 9 10 1014.0 - 0.2 - Cloudy 10 - - - -
07/03:30pm 20.6 ENE 8 10 1014.1 - 0.2 - Partly cloudy 10 - - - -
07/03:00pm 21.1 ENE 10 11 1014.2 - 0.2 - Mostly clear 10 - - - -
07/02:30pm 21.4 ENE 11 13 1014.2 - 0.2 - Partly cloudy 10 - - - -
07/02:00pm 20.8 E 10 12 1014.6 - 0.2 - Partly cloudy 10 - - - -
07/01:30pm 21.1 E 9 11 1014.7 - 0.2 - - 10 - - - -
07/01:00pm 21.0 E 9 11 1015.3 - 0.2 - Partly cloudy 10 - - - -
07/12:30pm 20.2 E 8 10 1015.5 - 0.2 - Partly cloudy 10 - - - -
07/12:00pm 20.5 ENE 7 9 1015.8 - 0.2 Recent precip. Mostly clear 10 - - - -
07/11:30am 20.8 E 7 9 1016.0 - 0.0 - Partly cloudy 10 - - - -
07/11:00am 19.5 SE 7 9 1016.0 - 0.0 - Partly cloudy 10 - - - -
07/10:30am 19.2 ESE 7 9 1015.9 - 0.0 - Partly cloudy 10 - - - -
07/10:00am 19.0 SE 7 9 1016.2 - 0.0 - Partly cloudy 10 - - - -
07/09:30am 18.3 S 1 6 1016.3 - 0.0 - Partly cloudy 10 - - - -
07/09:00am 17.6 S 1 4 1016.3 - 0.8 - Mostly cloudy 9 - - - -
07/08:30am 16.7 SW 5 7 1016.2 - 0.8 - Partly cloudy 10 - - - -
07/08:00am 16.6 WSW 5 6 1016.2 - 0.8 - Partly cloudy 9 - - - -
07/07:30am 15.5 WSW 5 7 1016.0 - 0.8 - Partly cloudy 9 - - - -
07/07:00am 15.6 W 4 6 1015.8 - 0.8 - Partly cloudy 9 - - - -
07/06:30am 15.5 WNW 4 5 1015.2 - 0.8 - Cloudy 8 - - - -
07/06:00am 15.4 W 3 4 1014.9 - 0.8 - Cloudy 10 - - - -
07/05:30am 15.4 WNW 4 5 1014.6 - 0.8 - Cloudy 8 - - - -
07/05:00am 15.7 WNW 4 5 1014.4 - 0.8 - Cloudy 6 - - - -
07/04:30am 15.7 W 4 6 1013.9 - 0.8 - Cloudy 9 - - - -
07/04:00am 15.8 W 3 4 1013.6 - 0.8 - Cloudy 6 - - - -
07/03:30am 15.9 WNW 1 4 1013.5 - 0.8 - Cloudy 8 - - - -
07/03:00am 15.9 CALM 0 1 1013.6 - 0.8 - Mostly cloudy 10 - - - -
07/02:30am 15.9 WNW 3 5 1013.6 - 0.8 - Cloudy 7 - - - -
07/02:20am 15.9 NW 3 5 1013.7 - 0.8 - Cloudy 7 - - - -
07/02:05am 16.0 NW 1 5 1013.8 - 0.8 - Cloudy 8 - - - -
07/02:00am 15.9 NW 3 6 1013.8 - 0.8 - Cloudy 8 - - - -
07/01:30am 15.9 WNW 3 5 1014.0 - 0.8 - Cloudy 8 - - - -
07/01:16am 15.9 W 3 4 1014.0 - 0.8 - Cloudy 8 - - - -
07/01:00am 16.1 W 3 5 1014.1 - 0.8 - Partly cloudy 9 - - - -
07/12:57am 16.1 W 4 5 1014.2 - 0.8 - Partly cloudy 10 - - - -
07/12:44am 16.2 WSW 4 5 1014.2 - 0.8 - Partly cloudy 5 - - - -
07/12:38am 16.2 WSW 4 5 1014.3 - 0.8 - Partly cloudy 5 - - - -
07/12:30am 16.2 WSW 4 5 1014.2 - 0.6 - Partly cloudy 8 - - - -
07/12:03am 16.4 SW 5 8 1014.2 - 0.6 - Partly cloudy 8 - - - -
07/12:00am 16.3 SSW 5 8 1014.1 - 0.6 - Partly cloudy 8 - - - -
 
Date/Time
EDT
Temp
°C
Wind Pressure Rain since
9am
mm
Weather Cloud Vis
km
Sea
Height
m
Swell
Dir  Spd
kts
Gust
kts
hPa Trend Height
m
Period
s
Dir
06/11:38pm 16.5 S 8 11 1014.0 - 0.6 - Partly cloudy 7 - - - -
06/11:30pm 16.6 S 6 9 1014.0 - 0.6 - Partly cloudy 6 - - - -
06/11:22pm 16.9 SSW 4 6 1013.9 - 0.6 - Partly cloudy 5 - - - -
06/11:00pm 16.8 S 6 8 1013.9 - 0.6 - Partly cloudy 7 - - - -
06/10:42pm 16.8 SSW 5 7 1014.0 - 0.6 - Partly cloudy 7 - - - -
06/10:30pm 16.9 SSW 5 6 1014.0 - 0.6 - Partly cloudy 6 - - - -
06/10:23pm 16.9 SSW 6 8 1014.0 - 0.4 - Partly cloudy 5 - - - -
06/10:18pm 16.8 SSW 6 8 1013.9 - 0.4 - Partly cloudy 7 - - - -
06/10:12pm 16.9 S 5 7 1014.0 - 0.4 - Partly cloudy 6 - - - -
06/10:00pm 16.9 S 5 7 1014.1 - 0.4 - Partly cloudy 10 - - - -
06/09:30pm 16.9 S 7 10 1013.8 - 0.4 - Partly cloudy 6 - - - -
06/09:00pm 17.1 S 9 13 1013.2 - 0.4 Recent precip. Cloudy 7 - - - -
06/08:57pm 17.1 S 8 13 1013.2 - 0.4 - Partly cloudy 7 - - - -
06/08:31pm 17.2 SSW 8 12 1012.9 - 0.2 - Partly cloudy 5 - - - -
06/08:30pm 17.2 S 8 12 1012.9 - 0.2 - Partly cloudy 6 - - - -
06/08:29pm 17.1 S 8 12 1013.0 - 0.2 - Partly cloudy 6 - - - -
06/08:04pm 17.3 SSW 7 10 1012.6 - 0.2 - Partly cloudy 5 - - - -
06/08:00pm 17.3 SSW 8 10 1012.4 - 0.2 - Partly cloudy 6 - - - -
06/07:30pm 17.5 SSW 9 13 1011.8 - 0.2 - Partly cloudy 10 - - - -
06/07:00pm 17.6 S 9 14 1011.6 - 0.2 - Partly cloudy 9 - - - -
06/06:30pm 17.8 S 12 17 1011.0 - 0.2 - Partly cloudy 7 - - - -
06/06:00pm 18.0 S 13 18 1010.3 - 0.2 - Cloudy 8 - - - -
06/05:30pm 18.4 S 14 21 1009.5 - 0.2 - Cloudy 10 - - - -
06/05:00pm 18.6 S 14 18 1009.7 - 0.2 - Cloudy 10 - - - -
06/04:57pm 18.7 S 12 18 1009.5 - 0.2 - Cloudy 10 - - - -
06/04:30pm 18.9 S 12 16 1009.6 - 0.2 - Cloudy 10 - - - -
06/04:00pm 19.7 S 13 17 1009.2 - 0.2 - Partly cloudy 10 - - - -
06/03:30pm 20.7 SSE 10 13 1009.4 - 0.2 - Cloudy 10 - - - -
06/03:00pm 20.9 SSE 5 7 1009.1 - 0.2 - Cloudy 8 - - - -
06/02:30pm 20.6 SE 3 6 1009.1 - 0.2 - Cloudy 10 - - - -
06/02:00pm 20.3 NE 3 4 1009.4 - 0.2 - Partly cloudy 10 - - - -
06/01:52pm 20.4 NE 3 4 1009.5 - 0.2 - Partly cloudy 10 - - - -
06/01:30pm 20.5 NNE 5 6 1009.4 - 0.2 - Partly cloudy 10 - - - -
06/01:00pm 20.4 NE 5 6 1009.8 - 0.2 - Partly cloudy 10 - - - -
06/12:30pm 20.4 NE 8 10 1009.8 - 0.2 - - 10 - - - -
06/12:00pm 20.0 NE 5 7 1010.3 - 0.2 - Mostly clear 10 - - - -
06/11:30am 20.2 NE 6 8 1010.7 - 0.2 - - 9 - - - -
06/11:00am 19.8 NE 8 9 1010.7 - 0.2 - Partly cloudy 10 - - - -
06/10:30am 20.0 NE 10 11 1010.5 - 0.2 - - 10 - - - -
06/10:17am 20.3 NE 7 9 1011.0 - 0.2 - Partly cloudy 10 - - - -
06/10:00am 20.2 NE 5 8 1011.4 - 0.2 - Partly cloudy 10 - - - -
06/09:58am 19.9 NE 5 7 1011.4 - 0.2 - Partly cloudy 10 - - - -
06/09:30am 19.2 N 4 6 1011.5 - 0.2 - - 10 - - - -
06/09:00am 18.1 N 5 7 1011.4 - 16.8 Recent precip. - 10 - - - -
06/08:30am 17.6 N 5 6 1011.3 - 16.8 - Partly cloudy 10 - - - -
06/08:00am 17.4 WNW 4 6 1011.8 - 16.6 - Partly cloudy 10 - - - -
06/07:30am 17.1 N 6 9 1010.8 - 16.4 - Partly cloudy 10 - - - -
06/07:04am 16.9 NW 2 4 1011.2 - 16.0 - Partly cloudy 9 - - - -
06/07:00am 16.8 NW 3 4 1011.4 - 15.8 - Partly cloudy 8 - - - -
06/06:46am 16.7 N 4 6 1011.5 - 15.2 - Partly cloudy 5 - - - -
06/06:30am 16.7 CALM 0 0 1011.7 - 14.4 - Partly cloudy 10 - - - -
06/06:00am 16.5 WNW 2 4 1011.8 - 14.2 Rain Mostly cloudy 9 - - - -
06/05:30am 16.4 CALM 0 0 1011.9 - 13.6 - Partly cloudy 10 - - - -
06/05:00am 16.3 CALM 0 0 1011.5 - 13.4 - Partly cloudy 10 - - - -
06/04:30am 16.4 CALM 0 0 1011.7 - 13.2 - Partly cloudy 9 - - - -
06/04:00am 16.4 WNW 3 5 1011.6 - 13.2 - Partly cloudy 10 - - - -
06/03:30am 16.5 NW 3 5 1011.6 - 13.0 - Partly cloudy 10 - - - -
06/03:00am 16.3 NW 3 5 1012.2 - 12.6 Recent precip. Mostly cloudy 10 - - - -
06/02:30am 16.5 WSW 5 8 1012.8 - 12.6 - Partly cloudy 10 - - - -
06/02:11am 16.6 SW 7 9 1013.3 - 12.4 - Partly cloudy 10 - - - -
06/02:00am 16.7 SW 7 10 1013.3 - 12.2 - Partly cloudy 9 - - - -
06/01:55am 16.7 SW 6 9 1013.5 - 12.0 - Partly cloudy 8 - - - -
06/01:39am 16.9 SW 7 9 1013.6 - 11.4 - Partly cloudy 7 - - - -
06/01:30am 16.9 SW 6 8 1013.9 - 11.2 - Partly cloudy 6 - - - -
06/01:21am 16.8 WSW 5 7 1014.1 - 10.6 - Partly cloudy 5 - - - -
06/01:00am 17.1 W 4 6 1014.1 - 9.2 - Partly cloudy 6 - - - -
06/12:30am 17.2 WNW 4 6 1014.1 - 8.4 - Cloudy 9 - - - -
06/12:00am 17.4 W 4 5 1013.9 - 8.2 - Cloudy 10 - - - -
 
Date/Time
EDT
Temp
°C
Wind Pressure Rain since
9am
mm
Weather Cloud Vis
km
Sea
Height
m
Swell
Dir  Spd
kts
Gust
kts
hPa Trend Height
m
Period
s
Dir
05/11:30pm 17.7 WSW 5 6 1014.3 - 8.2 - Cloudy 9 - - - -
05/11:07pm 17.9 SSW 8 10 1014.1 - 8.2 - Cloudy 10 - - - -
05/11:00pm 18.0 S 7 9 1014.2 - 8.2 - Cloudy 9 - - - -
05/10:30pm 18.2 SSW 5 8 1014.3 - 8.2 - Cloudy 8 - - - -
05/10:00pm 18.0 S 9 13 1014.1 - 8.2 - Partly cloudy 10 - - - -
05/09:30pm 18.2 SE 8 13 1013.6 - 8.2 - Partly cloudy 10 - - - -
05/09:14pm 18.2 S 7 10 1014.0 - 8.0 - Partly cloudy 9 - - - -
05/09:00pm 18.4 S 5 9 1013.9 - 7.4 Rain Cloudy 4 - - - -
05/08:33pm 19.0 SSW 7 9 1013.6 - 1.0 - Partly cloudy 5 - - - -
05/08:30pm 19.2 SW 7 13 1014.1 - 0.6 - Cloudy 7 - - - -
05/08:05pm 19.9 SSE 5 11 1013.0 - 0.2 - Partly cloudy 6 - - - -
05/08:00pm 20.0 S 7 11 1013.5 - 0.2 - Partly cloudy 7 - - - -
05/07:54pm 20.0 SSW 8 11 1013.2 - 0.2 - Partly cloudy 7 - - - -
05/07:30pm 20.0 S 8 13 1012.9 - 0.2 - Cloudy 7 - - - -
05/07:19pm 20.1 S 11 16 1012.3 - 0.2 - Cloudy 5 - - - -
05/07:00pm 20.3 S 14 20 1011.9 - 0.2 - Partly cloudy 7 - - - -
05/06:30pm 21.0 S 17 25 1010.9 - 0.2 - Partly cloudy 8 - - - -
05/06:19pm 21.1 S 14 23 1010.6 - 0.2 - Partly cloudy 8 - - - -
05/06:01pm 21.4 S 13 19 1010.0 - 0.2 - Partly cloudy 5 - - - -
05/06:00pm 21.3 S 13 19 1010.0 - 0.2 - Mostly clear 6 - - - -
05/05:30pm 22.0 S 15 22 1009.6 - 0.2 - Partly cloudy 9 - - - -
05/05:00pm 22.5 SSE 15 22 1009.0 - 0.2 - - 10 - - - -
05/04:30pm 22.5 S 17 27 1009.0 - 0.2 - - 9 - - - -
05/04:28pm 22.6 S 16 27 1008.9 - 0.2 - - 8 - - - -
05/04:00pm 23.0 S 19 26 1008.5 - 0.2 - - 9 - - - -
05/03:53pm 23.3 SSE 19 29 1008.4 - 0.2 - - 8 - - - -
05/03:30pm 25.0 SSE 17 24 1007.7 - 0.2 - - 9 - - - -
05/03:25pm 24.8 SSE 15 24 1007.4 - 0.2 - - 10 - - - -
05/03:00pm 25.6 ENE 5 7 1006.6 - 0.2 - - 10 - - - -
05/02:30pm 25.1 NE 5 6 1006.7 - 0.2 - - 10 - - - -
05/02:00pm 24.6 E 6 8 1006.8 - 0.2 - - 10 - - - -
05/01:30pm 25.9 E 7 10 1006.7 - 0.2 - - 9 - - - -
05/01:00pm 25.5 ENE 8 10 1006.3 - 0.2 - - 10 - - - -
05/12:30pm 25.9 ENE 5 7 1006.3 - 0.2 - - 9 - - - -
05/12:00pm 25.9 ENE 6 8 1006.4 - 0.2 Recent precip. Mostly clear 9 - - - -
05/11:30am 25.7 N 5 9 1006.6 - 0.0 - - 10 - - - -
05/11:00am 24.2 NNE 8 12 1007.0 - 0.0 - - 8 - - - -
05/10:30am 22.8 NNW 3 13 1007.5 - 0.0 - - 7 - - - -
05/10:00am 22.1 NNE 4 5 1007.7 - 0.0 - - 8 - - - -
05/09:30am 22.1 SE 2 5 1008.0 - 0.0 - - 8 - - - -
05/09:00am 21.4 NE 1 4 1007.7 - 1.2 - Partly cloudy 9 - - - -
05/08:58am 21.2 CALM 0 3 1007.7 - 1.2 - - 10 - - - -
05/08:30am 21.2 CALM 0 0 1008.0 - 1.2 - - 5 - - - -
05/08:29am 21.1 CALM 0 0 1008.0 - 1.2 - - 5 - - - -
05/08:25am 21.3 CALM 0 0 1008.0 - 1.2 - - 6 - - - -
05/08:00am 20.8 SSE 1 3 1008.2 - 1.2 - Partly cloudy 5 - - - -
05/07:51am 20.6 SSE 3 5 1008.3 - 1.2 - Partly cloudy 5 - - - -
05/07:42am 20.7 N 1 4 1008.1 - 1.2 - - 6 - - - -
05/07:30am 20.5 N 5 7 1007.9 - 1.2 - - 5 - - - -
05/07:00am 20.4 NNE 4 5 1008.2 - 1.2 - - 5 - - - -
05/06:30am 20.2 CALM 0 0 1008.4 - 1.2 - Partly cloudy 4 - - - -
05/06:00am 20.1 CALM 0 0 1008.5 - 1.2 - Mostly cloudy 3 - - - -
05/05:30am 20.2 CALM 0 0 1008.0 - 1.2 - - 3 - - - -
05/05:00am 20.2 CALM 0 0 1008.5 - 1.2 - Partly cloudy 4 - - - -
05/04:30am 20.4 NW 1 4 1008.8 - 1.2 - Partly cloudy 5 - - - -
05/04:15am 20.5 W 1 4 1009.1 - 1.2 - Partly cloudy 5 - - - -
05/04:10am 20.5 WSW 1 5 1009.0 - 1.2 - Partly cloudy 8 - - - -
05/04:00am 20.6 W 2 4 1008.9 - 1.2 - Partly cloudy 8 - - - -
05/03:32am 20.7 W 4 7 1008.8 - 1.0 - Partly cloudy 8 - - - -
05/03:30am 20.7 W 4 7 1008.8 - 1.0 - Partly cloudy 8 - - - -
05/03:00am 20.8 CALM 0 0 1008.6 - 1.0 - Cloudy 7 - - - -
05/02:35am 20.8 CALM 0 0 1008.8 - 1.0 - Partly cloudy 5 - - - -
05/02:30am 20.8 CALM 0 0 1008.9 - 1.0 - Partly cloudy 9 - - - -
05/02:09am 20.8 CALM 0 3 1009.0 - 1.0 - Partly cloudy 6 - - - -
05/02:00am 20.8 NNW 1 4 1009.1 - 1.0 - Partly cloudy 6 - - - -
05/01:30am 20.7 NNW 1 3 1009.4 - 0.8 - Cloudy 4 - - - -

Other Formats:

Comma delimited format used in spreadsheet applications
http://www.bom.gov.au/fwo/IDN60701/IDN60701.95937.axf

JavaScript Object Notation format (JSON) in row-major order
http://www.bom.gov.au/fwo/IDN60701/IDN60701.95937.json